createdAt,value
2022-08-07T00:01:44.755Z,5.50
2022-08-07T00:04:15.819Z,5.90
2022-08-07T00:06:51.601Z,5.70
2022-08-07T00:09:22.836Z,6.10
2022-08-07T00:11:56.134Z,5.70
2022-08-07T00:14:31.396Z,5.90
2022-08-07T00:17:02.525Z,6.20
2022-08-07T00:20:00.156Z,6.00
2022-08-07T00:22:24.875Z,6.10
2022-08-07T00:25:16.481Z,6.10
2022-08-07T00:27:52.609Z,5.60
2022-08-07T00:30:27.267Z,5.80
2022-08-07T00:32:58.241Z,5.30
2022-08-07T00:38:00.275Z,5.70
2022-08-07T00:40:39.837Z,5.30
2022-08-07T00:44:01.714Z,6.00
2022-08-07T00:46:03.030Z,5.50
2022-08-07T00:48:31.782Z,5.40
2022-08-07T00:51:03.000Z,5.30
2022-08-07T00:53:39.387Z,5.20
2022-08-07T00:56:19.384Z,5.30
2022-08-07T00:58:49.850Z,5.00
2022-08-07T01:01:20.705Z,6.00
2022-08-07T01:03:55.639Z,5.50
2022-08-07T01:06:29.502Z,5.40
2022-08-07T01:09:01.185Z,5.90
2022-08-07T01:12:10.211Z,5.50
2022-08-07T01:14:28.416Z,5.30
2022-08-07T01:16:59.379Z,5.40
2022-08-07T01:19:32.540Z,5.50
2022-08-07T01:22:08.808Z,6.00
2022-08-07T01:24:42.288Z,5.90
2022-08-07T01:27:19.864Z,6.20
2022-08-07T01:29:50.797Z,6.80
2022-08-07T01:32:22.468Z,6.60
2022-08-07T01:34:54.807Z,6.70
2022-08-07T01:40:00.337Z,6.80
2022-08-07T01:42:40.180Z,6.80
2022-08-07T01:45:36.212Z,7.40
2022-08-07T01:48:29.897Z,7.20
2022-08-07T01:51:24.340Z,7.50
2022-08-07T01:54:12.206Z,7.70
2022-08-07T01:56:51.470Z,8.00
2022-08-07T01:59:47.321Z,8.90
2022-08-07T02:03:18.012Z,8.30
2022-08-07T02:05:48.267Z,8.00
2022-08-07T02:08:28.287Z,7.80
2022-08-07T02:11:00.655Z,8.10
2022-08-07T02:13:56.637Z,8.10
2022-08-07T02:16:28.634Z,8.00
2022-08-07T02:20:06.593Z,7.70
2022-08-07T02:21:59.855Z,7.70
2022-08-07T02:24:31.972Z,7.40
2022-08-07T02:27:03.323Z,8.10
2022-08-07T02:29:43.340Z,7.20
2022-08-07T02:32:23.218Z,7.50
2022-08-07T02:34:53.851Z,7.70
2022-08-07T02:37:26.837Z,7.80
2022-08-07T02:40:02.561Z,7.10
2022-08-07T02:42:48.006Z,7.00
2022-08-07T02:46:00.804Z,7.80
2022-08-07T02:48:10.117Z,8.00
2022-08-07T02:50:48.794Z,7.70
2022-08-07T02:53:27.374Z,7.50
2022-08-07T02:56:02.591Z,8.00
2022-08-07T02:58:36.049Z,8.20
2022-08-07T03:01:19.095Z,7.90
2022-08-07T03:04:03.450Z,8.10
2022-08-07T03:06:37.386Z,7.80
2022-08-07T03:09:11.360Z,7.70
2022-08-07T03:11:52.249Z,8.30
2022-08-07T03:14:28.855Z,8.10
2022-08-07T03:19:29.098Z,7.20
2022-08-07T03:22:07.407Z,7.70
2022-08-07T03:24:48.800Z,6.90
2022-08-07T03:27:30.355Z,7.20
2022-08-07T03:30:03.793Z,7.40
2022-08-07T03:32:48.910Z,7.50
2022-08-07T03:35:26.245Z,8.20
2022-08-07T03:38:01.948Z,7.40
2022-08-07T03:40:36.226Z,7.50
2022-08-07T03:43:13.706Z,7.80
2022-08-07T03:45:47.887Z,7.80
2022-08-07T03:48:21.365Z,8.30
2022-08-07T03:50:52.157Z,8.50
2022-08-07T03:54:01.883Z,7.60
2022-08-07T03:56:32.597Z,8.30
2022-08-07T03:59:09.518Z,8.00
2022-08-07T04:01:43.312Z,7.70
2022-08-07T04:04:19.314Z,8.50
2022-08-07T04:06:53.062Z,8.30
2022-08-07T04:09:24.848Z,8.30
2022-08-07T04:12:25.003Z,8.40
2022-08-07T04:14:47.733Z,8.30
2022-08-07T04:17:21.512Z,8.20
2022-08-07T04:19:55.407Z,8.60
2022-08-07T04:22:29.650Z,8.10
2022-08-07T04:25:11.900Z,8.30
2022-08-07T04:27:44.278Z,8.20
2022-08-07T04:30:35.474Z,8.40
2022-08-07T04:33:20.277Z,7.90
2022-08-07T04:35:53.933Z,8.30
2022-08-07T04:38:28.382Z,7.90
2022-08-07T04:40:58.299Z,8.00
2022-08-07T04:44:12.082Z,8.10
2022-08-07T04:47:04.947Z,8.30
2022-08-07T04:49:38.784Z,8.40
2022-08-07T04:52:27.599Z,7.80
2022-08-07T04:55:14.856Z,8.60
2022-08-07T04:58:24.301Z,8.30
2022-08-07T05:01:30.060Z,7.80
2022-08-07T05:04:34.121Z,8.10
2022-08-07T05:07:44.250Z,7.90
2022-08-07T05:10:29.414Z,7.60
2022-08-07T05:15:51.220Z,8.20
2022-08-07T05:18:35.673Z,8.00
2022-08-07T05:21:06.328Z,7.20
2022-08-07T05:23:47.623Z,8.20
2022-08-07T05:26:24.177Z,7.80
2022-08-07T05:29:04.237Z,8.20
2022-08-07T05:31:38.718Z,7.70
2022-08-07T05:34:15.653Z,7.70
2022-08-07T05:36:52.805Z,8.00
2022-08-07T05:40:16.858Z,7.60
2022-08-07T05:42:34.668Z,8.20
2022-08-07T05:45:25.808Z,7.80
2022-08-07T05:48:03.956Z,7.90
2022-08-07T05:51:10.719Z,8.00
2022-08-07T05:54:13.063Z,7.70
2022-08-07T05:56:30.211Z,7.40
2022-08-07T05:59:02.758Z,7.60
2022-08-07T06:01:35.905Z,7.30
2022-08-07T06:04:08.591Z,7.00
2022-08-07T06:06:46.303Z,6.90
2022-08-07T06:09:17.625Z,7.20
2022-08-07T06:11:48.989Z,7.10
2022-08-07T06:14:21.179Z,7.10
2022-08-07T06:16:56.171Z,6.70
2022-08-07T06:19:52.051Z,6.40
2022-08-07T06:22:38.901Z,6.70
2022-08-07T06:25:22.708Z,5.90
2022-08-07T06:28:01.610Z,5.80
2022-08-07T06:33:16.760Z,5.90
2022-08-07T06:36:12.122Z,5.70
2022-08-07T06:38:58.635Z,5.40
2022-08-07T06:45:44.260Z,6.40
2022-08-07T06:48:13.607Z,7.90
2022-08-07T06:50:48.812Z,6.10
2022-08-07T06:54:11.988Z,6.10
2022-08-07T06:56:14.828Z,5.90
2022-08-07T07:00:14.657Z,5.60
2022-08-07T07:01:43.690Z,5.70
2022-08-07T07:04:32.902Z,5.60
2022-08-07T07:07:10.423Z,5.70
2022-08-07T07:09:50.862Z,5.40
2022-08-07T07:12:41.861Z,5.70
2022-08-07T07:15:35.877Z,5.80
2022-08-07T07:18:47.381Z,6.00
2022-08-07T07:21:13.541Z,5.30
2022-08-07T07:24:39.426Z,5.70
2022-08-07T07:27:15.442Z,5.80
2022-08-07T07:30:09.277Z,5.60
2022-08-07T07:32:40.606Z,5.10
2022-08-07T07:35:12.968Z,5.60
2022-08-07T07:37:49.459Z,5.60
2022-08-07T07:40:28.659Z,5.20
2022-08-07T07:43:11.626Z,5.90
2022-08-07T07:46:37.328Z,5.50
2022-08-07T07:50:35.390Z,5.50
2022-08-07T07:52:11.061Z,5.60
2022-08-07T07:54:44.287Z,5.80
2022-08-07T07:57:52.459Z,5.40
2022-08-07T08:00:15.072Z,5.50
2022-08-07T08:03:05.437Z,6.20
2022-08-07T08:05:50.603Z,5.60
2022-08-07T08:08:34.764Z,5.60
2022-08-07T08:11:08.625Z,6.20
2022-08-07T08:13:54.660Z,6.10
2022-08-07T08:16:38.969Z,5.90
2022-08-07T08:20:18.852Z,5.70
2022-08-07T08:22:19.936Z,5.70
2022-08-07T08:25:24.683Z,6.20
2022-08-07T08:28:06.127Z,6.00
2022-08-07T08:30:51.431Z,6.20
2022-08-07T08:33:28.811Z,6.70
2022-08-07T08:36:03.668Z,5.90
2022-08-07T08:38:41.106Z,5.80
2022-08-07T08:41:31.533Z,6.00
2022-08-07T08:44:45.697Z,5.80
2022-08-07T08:47:52.474Z,5.50
2022-08-07T08:50:34.995Z,6.00
2022-08-07T08:53:59.967Z,5.90
2022-08-07T08:56:36.402Z,5.70
2022-08-07T08:59:50.460Z,5.50
2022-08-07T09:02:37.573Z,5.10
2022-08-07T09:05:37.457Z,5.10
2022-08-07T09:08:33.813Z,4.90
2022-08-07T09:11:24.208Z,5.40
2022-08-07T09:21:33.949Z,5.50
2022-08-07T09:30:03.470Z,5.10
2022-08-07T09:31:39.001Z,5.60
2022-08-07T09:38:54.849Z,5.50
2022-08-07T09:41:43.259Z,5.50
2022-08-07T09:44:32.991Z,5.60
2022-08-07T09:48:02.968Z,5.20
2022-08-07T09:52:09.295Z,5.50
2022-08-07T09:55:16.994Z,5.00
2022-08-07T09:58:36.355Z,5.60
2022-08-07T10:06:00.096Z,5.20
2022-08-07T10:08:51.755Z,5.00
2022-08-07T10:12:11.778Z,5.30
2022-08-07T10:35:55.183Z,5.00
2022-08-07T10:38:51.211Z,4.40
2022-08-07T10:41:53.835Z,4.70
2022-08-07T10:49:49.537Z,4.80
2022-08-07T10:56:49.410Z,5.10
2022-08-07T10:59:47.330Z,4.90
2022-08-07T11:02:37.980Z,4.60
2022-08-07T11:05:50.357Z,4.50
2022-08-07T11:08:49.568Z,4.50
2022-08-07T11:12:07.406Z,4.70
2022-08-07T11:15:00.420Z,4.60
2022-08-07T11:38:12.437Z,5.10
2022-08-07T11:45:53.288Z,4.90
2022-08-07T11:48:44.180Z,5.20
2022-08-07T11:51:53.353Z,5.10
2022-08-07T11:54:22.175Z,5.00
2022-08-07T11:57:59.971Z,4.80
2022-08-07T12:00:41.665Z,4.80
2022-08-07T12:04:07.456Z,4.50
2022-08-07T12:06:51.468Z,4.80
2022-08-07T12:09:34.400Z,4.80
2022-08-07T12:12:11.105Z,4.40
2022-08-07T12:14:51.437Z,4.70
2022-08-07T12:17:58.583Z,4.60
2022-08-07T12:20:36.544Z,4.70
2022-08-07T12:23:37.251Z,4.80
2022-08-07T12:26:30.885Z,4.60
2022-08-07T12:29:38.204Z,4.60
2022-08-07T12:32:03.771Z,4.70
2022-08-07T12:34:37.072Z,4.50
2022-08-07T12:37:17.018Z,4.60
2022-08-07T12:39:55.325Z,4.30
2022-08-07T12:42:28.613Z,4.50
2022-08-07T12:45:27.657Z,4.60
2022-08-07T12:48:28.317Z,4.40
2022-08-07T12:51:13.257Z,4.50
2022-08-07T12:54:36.332Z,4.80
2022-08-07T12:56:50.915Z,4.90
2022-08-07T12:59:30.484Z,4.70
2022-08-07T13:02:41.645Z,4.20
2022-08-07T13:06:02.460Z,4.60
2022-08-07T13:08:32.917Z,4.90
2022-08-07T13:11:07.463Z,5.00
2022-08-07T13:14:02.355Z,4.90
2022-08-07T13:16:39.624Z,5.00
2022-08-07T13:19:46.203Z,4.70
2022-08-07T13:22:31.296Z,4.40
2022-08-07T13:25:29.243Z,4.90
2022-08-07T13:28:10.679Z,4.40
2022-08-07T13:31:13.225Z,4.30
2022-08-07T13:34:31.337Z,4.30
2022-08-07T13:36:50.690Z,4.30
2022-08-07T13:40:32.801Z,4.70
2022-08-07T13:42:25.884Z,4.80
2022-08-07T13:46:06.714Z,4.40
2022-08-07T13:48:06.327Z,4.30
2022-08-07T13:50:44.220Z,4.70
2022-08-07T13:53:21.782Z,4.60
2022-08-07T13:55:54.771Z,4.70
2022-08-07T13:58:54.219Z,4.20
2022-08-07T14:01:27.958Z,4.40
2022-08-07T14:04:16.717Z,4.70
2022-08-07T14:06:52.546Z,4.90
2022-08-07T14:10:02.333Z,4.80
2022-08-07T14:12:27.606Z,4.60
2022-08-07T14:15:05.009Z,4.70
2022-08-07T14:18:24.113Z,5.00
2022-08-07T14:20:41.785Z,5.30
2022-08-07T14:23:31.449Z,4.90
2022-08-07T14:26:28.185Z,5.40
2022-08-07T14:29:08.837Z,5.60
2022-08-07T14:31:42.773Z,5.90
2022-08-07T14:34:29.552Z,5.60
2022-08-07T14:37:03.384Z,5.90
2022-08-07T14:40:16.827Z,6.20
2022-08-07T14:42:32.382Z,5.40
2022-08-07T14:45:21.504Z,5.80
2022-08-07T14:47:52.909Z,5.90
2022-08-07T14:50:28.910Z,6.10
2022-08-07T14:53:09.771Z,6.10
2022-08-07T14:55:55.892Z,5.70
2022-08-07T14:58:34.331Z,5.70
2022-08-07T15:01:22.509Z,5.00
2022-08-07T15:03:53.658Z,5.50
2022-08-07T15:08:55.769Z,5.50
2022-08-07T15:11:54.371Z,5.30
2022-08-07T15:14:22.316Z,5.10
2022-08-07T15:17:04.308Z,4.60
2022-08-07T15:25:39.728Z,5.20
2022-08-07T15:28:34.749Z,5.10
2022-08-07T15:31:06.710Z,4.80
2022-08-07T15:34:14.998Z,5.50
2022-08-07T15:37:03.683Z,5.10
2022-08-07T15:39:57.700Z,5.20
2022-08-07T15:45:55.761Z,5.60
2022-08-07T15:49:13.330Z,5.50
2022-08-07T15:54:34.141Z,5.50
2022-08-07T15:57:06.056Z,5.80
2022-08-07T15:59:44.166Z,5.10
2022-08-07T16:02:55.003Z,5.30
2022-08-07T16:05:31.229Z,5.30
2022-08-07T16:08:31.007Z,5.20
2022-08-07T16:11:26.781Z,5.50
2022-08-07T16:14:40.656Z,5.50
2022-08-07T16:18:02.526Z,5.80
2022-08-07T16:21:43.788Z,5.60
2022-08-07T16:24:33.723Z,6.00
2022-08-07T16:27:39.814Z,6.10
2022-08-07T16:30:30.081Z,7.60
2022-08-07T16:34:02.799Z,6.90
2022-08-07T16:37:00.148Z,7.00
2022-08-07T16:39:49.724Z,6.60
2022-08-07T16:42:36.712Z,6.20
2022-08-07T16:46:40.305Z,6.40
2022-08-07T16:50:13.849Z,6.60
2022-08-07T16:52:51.580Z,6.90
2022-08-07T16:55:08.513Z,6.90
2022-08-07T16:58:04.065Z,6.80
2022-08-07T17:00:44.703Z,7.20
2022-08-07T17:04:00.137Z,6.10
2022-08-07T17:07:17.931Z,7.00
2022-08-07T17:10:54.318Z,6.50
2022-08-07T17:14:17.511Z,6.70
2022-08-07T17:16:56.975Z,8.40
2022-08-07T17:20:00.513Z,6.30
2022-08-07T17:23:13.175Z,6.00
2022-08-07T17:26:22.526Z,6.40
2022-08-07T17:28:52.698Z,6.20
2022-08-07T17:32:02.863Z,5.80
2022-08-07T17:35:32.775Z,6.00
2022-08-07T17:42:04.401Z,6.10
2022-08-07T17:44:33.980Z,5.40
2022-08-07T17:47:41.863Z,5.80
2022-08-07T17:50:19.637Z,5.70
2022-08-07T17:53:09.196Z,6.00
2022-08-07T17:56:11.149Z,6.30
2022-08-07T17:59:16.916Z,5.80
2022-08-07T18:02:15.698Z,5.90
2022-08-07T18:05:21.687Z,5.90
2022-08-07T18:08:24.343Z,6.00
2022-08-07T18:12:16.319Z,5.60
2022-08-07T18:14:23.843Z,5.70
2022-08-07T18:17:00.249Z,6.00
2022-08-07T18:21:08.667Z,5.60
2022-08-07T18:22:57.904Z,5.70
2022-08-07T18:25:40.389Z,5.70
2022-08-07T18:32:08.564Z,5.90
2022-08-07T18:35:08.001Z,5.90
2022-08-07T18:38:56.013Z,5.70
2022-08-07T18:41:10.022Z,5.80
2022-08-07T18:44:00.547Z,5.50
2022-08-07T18:46:47.885Z,5.40
2022-08-07T18:50:30.245Z,5.30
2022-08-07T18:53:12.439Z,5.60
2022-08-07T18:56:30.896Z,5.60
2022-08-07T18:59:47.115Z,5.70
2022-08-07T19:02:32.333Z,5.40
2022-08-07T19:05:15.895Z,5.50
2022-08-07T19:08:06.629Z,5.70
2022-08-07T19:10:51.835Z,5.60
2022-08-07T19:13:37.794Z,5.90
2022-08-07T19:17:08.264Z,5.80
2022-08-07T19:20:29.817Z,5.90
2022-08-07T19:23:17.975Z,5.90
2022-08-07T19:26:23.263Z,5.60
2022-08-07T19:30:57.967Z,8.60
2022-08-07T19:32:10.347Z,6.20
2022-08-07T19:34:47.806Z,5.90
2022-08-07T19:37:22.241Z,5.50
2022-08-07T19:40:05.383Z,6.20
2022-08-07T19:42:45.751Z,6.60
2022-08-07T19:46:05.909Z,7.50
2022-08-07T19:48:25.442Z,7.20
2022-08-07T19:50:54.726Z,6.60
2022-08-07T19:54:31.809Z,6.90
2022-08-07T19:56:58.528Z,7.60
2022-08-07T19:59:41.417Z,7.90
2022-08-07T20:02:19.666Z,7.10
2022-08-07T20:04:56.103Z,7.40
2022-08-07T20:07:46.381Z,7.20
2022-08-07T20:10:35.781Z,9.00
2022-08-07T20:13:22.846Z,8.20
2022-08-07T20:15:57.764Z,8.60
2022-08-07T20:18:32.607Z,7.90
2022-08-07T20:21:22.027Z,7.80
2022-08-07T20:24:00.470Z,8.30
2022-08-07T20:26:44.939Z,8.30
2022-08-07T20:29:47.752Z,8.10
2022-08-07T20:32:22.710Z,8.70
2022-08-07T20:35:01.282Z,8.60
2022-08-07T20:37:55.790Z,9.30
2022-08-07T20:40:34.339Z,7.80
2022-08-07T20:43:09.317Z,7.60
2022-08-07T20:46:27.636Z,8.20
2022-08-07T20:48:34.455Z,8.00
2022-08-07T20:51:09.725Z,7.30
2022-08-07T20:54:04.335Z,7.10
2022-08-07T20:56:32.263Z,7.10
2022-08-07T20:59:05.333Z,6.70
2022-08-07T21:01:45.446Z,7.30
2022-08-07T21:04:22.557Z,7.20
2022-08-07T21:06:57.438Z,7.40
2022-08-07T21:09:51.857Z,7.00
2022-08-07T21:12:28.811Z,7.20
2022-08-07T21:15:00.915Z,7.20
2022-08-07T21:18:20.536Z,7.40
2022-08-07T21:20:30.400Z,7.80
2022-08-07T21:23:08.438Z,7.80
2022-08-07T21:26:03.229Z,7.40
2022-08-07T21:28:58.225Z,7.00
2022-08-07T21:32:46.869Z,7.50
2022-08-07T21:35:02.835Z,7.10
2022-08-07T21:37:31.642Z,7.30
2022-08-07T21:40:36.066Z,7.10
2022-08-07T21:43:55.213Z,7.20
2022-08-07T21:46:31.823Z,7.00
2022-08-07T21:49:01.350Z,6.90
2022-08-07T21:51:32.201Z,7.40
2022-08-07T21:54:06.825Z,7.60
2022-08-07T21:56:48.074Z,7.20
2022-08-07T22:00:02.877Z,7.60
2022-08-07T22:05:52.137Z,7.60
2022-08-07T22:08:24.828Z,7.80
2022-08-07T22:10:59.749Z,7.80
2022-08-07T22:13:51.261Z,7.70
2022-08-07T22:17:00.174Z,7.60
2022-08-07T22:20:23.771Z,7.70
2022-08-07T22:29:49.616Z,7.60
2022-08-07T22:33:01.223Z,7.70
2022-08-07T22:35:51.955Z,7.50
2022-08-07T22:38:26.551Z,7.70
2022-08-07T22:42:02.484Z,7.40
2022-08-07T22:44:22.809Z,7.10
2022-08-07T22:47:06.421Z,6.60
2022-08-07T22:50:08.338Z,7.20
2022-08-07T22:53:03.775Z,6.90
2022-08-07T22:55:54.627Z,6.70
2022-08-07T22:58:42.361Z,6.70
2022-08-07T23:01:49.724Z,6.90
2022-08-07T23:06:04.974Z,6.90
2022-08-07T23:08:31.481Z,6.20
2022-08-07T23:11:10.298Z,5.90
2022-08-07T23:14:16.072Z,6.40
2022-08-07T23:17:15.714Z,6.70
2022-08-07T23:20:40.269Z,5.60
2022-08-07T23:24:06.992Z,6.40
2022-08-07T23:26:25.326Z,6.10
2022-08-07T23:29:43.389Z,6.10
2022-08-07T23:34:18.693Z,6.00
2022-08-07T23:35:37.353Z,5.30
2022-08-07T23:39:22.159Z,5.20
2022-08-07T23:42:05.797Z,5.90
2022-08-07T23:44:46.617Z,6.10
2022-08-07T23:47:49.382Z,5.60
2022-08-07T23:50:29.778Z,6.00
2022-08-07T23:53:51.854Z,5.50
2022-08-07T23:56:37.869Z,5.50
